Weather at Yasser Arafat International Airport [CLOSED]

Public forecast

Using degrees Celsius for public forecast. Weather courtesy of forecast.io.

Closest aviation weather report (METAR) to Yasser Arafat International Airport

Closest report is El Arish International Airport, 24.7 nm (45.8 km) WSW.

2024/05/25 10:00 (retrieved 1 hour ago)

HEAR 251000Z 31010KT 9999 SCT025 27/18 Q1013 NOSIG

Closest aviation forecast (TAF) to Yasser Arafat International Airport

Closest forecast is Ben Gurion International Airport, 55.5 nm (102.8 km) NE.

2024/05/25 06:09 (retrieved 5 hours ago)

TAF TAF LLBG 250504Z 2506/2606 25012KT 9999 SCT035 PROB40 TEMPO 2506/2508 -RA BKN025 BECMG 2516/2518 VRB04KT SCT025 TEMPO 2518/2605 17006KT SCT015 BKN020 TX27/2511Z TN20/2603Z